Latest Weather Observations for PORTABLE BCAA (DBCA)

IDW60801

Issued at 7:43 am WST Sunday 28 November 2021 (issued every 10 minutes, with the page automatically refreshed every 10 minutes)

About weather observations | Map of weather stations | Latest weather observations for WA | Other Formats
Station Details ID: 250121 Name: DBCA PORTABLE AWS 1 (BCAA) Lat: -33.93 Lon: 115.08 Height: 0.0 m

Portable automatic weather stations (PAWS) are operated by other organisations, such as Fire and Emergency Services, and are included here by agreement. Portable stations may be deployed to a location for a short period and their location may be subject to change without notice. Wind observations from these stations are provided from heights of either three (3) or ten (10) metres above ground level (AGL).

Data from the previous 72 hours. | See also: Recent months for locations in Western Australia
Date/Time
WST
Temp
°C
App
Temp
°C
Dew
Point
°C
Rel
Hum
%
Delta-T
°C
Wind Press
QNH
hPa
Press
MSL
hPa
Rain since
9am
mm
Dir  Spd
km/h
Gust
km/h
Spd
kts
Gust
kts
28/07:30am 18.4 20.4 17.8 96 - SSW 4 6 2 3 - - 0.0
28/07:20am 18.1 20.1 17.8 98 - SSE 4 6 2 3 - - 0.0
28/07:10am 18.1 20.2 18.1 100 - SSW 4 6 2 3 - - 0.0
28/07:00am 17.9 19.9 17.9 100 - S 4 6 2 3 - - 0.0
28/06:50am 17.9 19.9 17.8 99 - S 4 6 2 3 - - 0.0
28/06:40am 17.7 19.6 17.6 99 - SW 4 6 2 3 - - 0.0
28/06:30am 17.4 19.2 17.4 100 - SW 4 4 2 2 - - 0.0
28/06:20am 17.2 19.3 17.2 100 - SSE 2 2 1 1 - - 0.0
28/06:10am 17.0 19.0 17.0 100 - SW 2 4 1 2 - - 0.0
28/06:00am 17.0 19.0 16.9 99 - ESE 2 4 1 2 - - 0.0
28/05:50am 16.9 18.9 16.9 100 - S 2 4 1 2 - - 0.0
28/05:40am 16.9 18.8 16.8 99 - SSW 2 4 1 2 - - 0.0
28/05:30am 16.8 18.7 16.8 100 - SSW 2 4 1 2 - - 0.0
28/05:20am 16.8 18.7 16.8 100 - S 2 4 1 2 - - 0.0
28/05:10am 16.9 18.9 16.9 100 - WSW 2 2 1 1 - - 0.0
28/05:00am 16.9 19.3 16.9 100 - CALM 0 2 0 1 - - 0.0
28/04:50am 17.0 19.4 17.0 100 - CALM 0 2 0 1 - - 0.0
28/04:40am 17.1 19.5 17.1 100 - CALM 0 2 0 1 - - 0.0
28/04:30am 17.2 19.3 17.2 100 - SSW 2 4 1 2 - - 0.0
28/04:20am 17.3 19.8 17.3 100 - CALM 0 4 0 2 - - 0.0
28/04:10am 17.4 19.6 17.4 100 - WSW 2 4 1 2 - - 0.0
28/04:00am 17.4 19.6 17.4 100 - W 2 2 1 1 - - 0.0
28/03:50am 17.4 19.6 17.4 100 - WSW 2 4 1 2 - - 0.0
28/03:40am 17.3 19.4 17.2 99 - WSW 2 4 1 2 - - 0.0
28/03:30am 17.0 19.0 17.0 100 - WSW 2 4 1 2 - - 0.0
28/03:20am 16.8 18.7 16.8 100 - SW 2 4 1 2 - - 0.0
28/03:10am 16.5 18.3 16.5 100 - S 2 2 1 1 - - 0.0
28/03:00am 16.4 18.1 16.3 99 - SW 2 4 1 2 - - 0.0
28/02:50am 16.3 17.7 16.3 100 - SSW 4 4 2 2 - - 0.0
28/02:40am 16.1 17.0 16.1 100 - SW 6 6 3 3 - - 0.0
28/02:30am 15.4 16.4 15.4 100 - SW 4 6 2 3 - - 0.0
28/02:20am 15.9 17.4 15.8 99 - SSW 2 4 1 2 - - 0.0
28/02:10am 16.2 17.9 16.1 99 - SSE 2 2 1 1 - - 0.0
28/02:00am 16.3 18.0 16.3 100 - S 2 4 1 2 - - 0.0
28/01:50am 16.7 19.0 16.7 100 - CALM 0 2 0 1 - - 0.0
28/01:40am 16.9 19.3 16.9 100 - CALM 0 2 0 1 - - 0.0
28/01:30am 17.1 18.8 17.1 100 - NE 4 6 2 3 - - 0.0
28/01:20am 17.1 18.8 17.1 100 - NE 4 6 2 3 - - 0.0
28/01:10am 17.1 18.8 17.1 100 - SSE 4 6 2 3 - - 0.0
28/01:00am 17.0 18.6 17.0 100 - SSW 4 6 2 3 - - 0.0
28/12:50am 16.6 18.1 16.6 100 - SSW 4 6 2 3 - - 0.0
28/12:40am 16.2 17.4 16.0 99 - SSW 4 6 2 3 - - 0.0
28/12:30am 16.2 17.9 16.1 99 - SE 2 4 1 2 - - 0.0
28/12:20am 16.3 17.6 16.1 99 - SW 4 6 2 3 - - 0.0
28/12:10am 16.4 17.6 15.8 96 - SSW 4 4 2 2 - - 0.0
28/12:00am 16.6 17.8 15.9 96 - SSW 4 4 2 2 - - 0.0
 
Date/Time
WST
Temp
°C
App
Temp
°C
Dew
Point
°C
Rel
Hum
%
Delta-T
°C
Wind Press
QNH
hPa
Press
MSL
hPa
Rain since
9am
mm
Dir  Spd
km/h
Gust
km/h
Spd
kts
Gust
kts
27/11:50pm 16.7 18.4 16.2 97 - S 2 4 1 2 - - 0.0
27/11:40pm 16.7 17.8 15.7 94 - SSW 4 4 2 2 - - 0.0
27/11:30pm 16.8 17.9 15.6 93 - SW 4 4 2 2 - - 0.0
27/11:20pm 17.0 18.4 15.4 90 - SW 2 4 1 2 - - 0.0
27/11:10pm 17.2 18.2 15.4 89 - SSW 4 4 2 2 - - 0.0
27/11:00pm 17.0 18.0 15.3 90 - SW 4 4 2 2 - - 0.0
27/10:50pm 16.8 17.6 14.7 87 - S 4 6 2 3 - - 0.0
27/10:40pm 16.9 17.9 14.4 85 - SSW 2 6 1 3 - - 0.0
27/10:30pm 17.1 18.1 14.4 84 - S 2 2 1 1 - - 0.0
27/10:20pm 17.1 18.2 14.5 85 - SSW 2 4 1 2 - - 0.0
27/10:10pm 17.2 18.3 14.6 85 - SSW 2 2 1 1 - - 0.0
27/10:00pm 17.3 18.4 14.7 85 - SSW 2 2 1 1 - - 0.0
27/09:50pm 17.5 18.7 14.8 84 - SSW 2 2 1 1 - - 0.0
27/09:40pm 17.7 18.9 14.9 84 - SSW 2 4 1 2 - - 0.0
27/09:30pm 18.0 18.8 14.9 82 - SSW 4 4 2 2 - - 0.0
27/09:20pm 18.3 19.1 14.9 80 - SW 4 4 2 2 - - 0.0
27/09:10pm 18.4 19.6 14.9 80 - SSW 2 4 1 2 - - 0.0
27/09:00pm 18.7 19.9 14.9 78 - SSW 2 4 1 2 - - 0.0
27/08:50pm 19.0 20.2 14.9 77 - SSW 2 6 1 3 - - 0.0
27/08:40pm 19.3 20.1 14.9 75 - SSW 4 4 2 2 - - 0.0
27/08:30pm 19.5 20.3 14.7 74 - SSW 4 4 2 2 - - 0.0
27/08:20pm 19.6 20.6 14.4 72 - S 2 4 1 2 - - 0.0
27/08:10pm 19.7 20.9 14.8 73 - SSW 2 4 1 2 - - 0.0
27/08:00pm 20.1 21.3 14.8 71 - SSW 2 4 1 2 - - 0.0
27/07:50pm 20.6 21.8 15.0 70 - SSW 2 2 1 1 - - 0.0
27/07:40pm 21.3 22.5 14.8 66 - SSW 2 4 1 2 - - 0.0
27/07:30pm 22.0 22.9 15.1 65 - SW 4 4 2 2 - - 0.0
27/07:20pm 22.8 24.1 15.2 62 - SSW 2 4 1 2 - - 0.0
27/07:10pm 23.8 25.2 15.5 59 - SSW 2 4 1 2 - - 0.0
27/07:00pm 25.0 26.0 15.3 55 - SSW 4 6 2 3 - - 0.0
27/06:50pm 26.2 26.5 13.4 45 - S 4 4 2 2 - - 0.0
27/06:40pm 27.3 27.7 13.7 43 - S 4 6 2 3 - - 0.0
27/06:30pm 28.2 28.7 13.9 41 - SE 4 6 2 3 - - 0.0
27/06:20pm 28.5 28.4 13.4 39 - SSW 6 7 3 4 - - 0.0
27/06:10pm 29.1 29.8 15.6 44 - SSW 6 7 3 4 - - 0.0
27/06:00pm 29.6 30.4 15.9 43 - SSW 6 6 3 3 - - 0.0
27/05:50pm 30.0 30.8 15.9 42 - SW 6 7 3 4 - - 0.0
27/05:40pm 30.5 31.0 15.0 39 - SSW 6 6 3 3 - - 0.0
27/05:30pm 30.7 30.8 13.9 36 - SW 6 7 3 4 - - 0.0
27/05:20pm 30.6 30.5 13.2 34 - SW 6 7 3 4 - - 0.0
27/05:10pm 30.5 30.0 12.7 33 - WSW 7 7 4 4 - - 0.0
27/05:00pm 30.8 30.3 12.6 32 - W 7 9 4 5 - - 0.0
27/04:50pm 31.2 30.8 13.0 33 - W 7 11 4 6 - - 0.0
27/04:40pm 32.1 31.9 13.5 32 - WSW 7 9 4 5 - - 0.0
27/04:30pm 32.5 32.2 13.2 31 - WSW 7 9 4 5 - - 0.0
27/04:20pm 33.0 32.5 11.9 27 - SW 6 9 3 5 - - 0.0
27/04:10pm 33.2 33.1 12.0 27 - WSW 4 6 2 3 - - 0.0
27/04:00pm 32.5 31.5 10.9 26 - W 7 11 4 6 - - 0.0
27/03:50pm 32.4 31.4 11.1 27 - W 7 9 4 5 - - 0.0
27/03:40pm 32.5 31.8 11.5 27 - W 6 7 3 4 - - 0.0
27/03:30pm 32.5 31.9 11.8 28 - WSW 6 9 3 5 - - 0.0
27/03:20pm 32.1 30.9 11.5 28 - W 9 11 5 6 - - 0.0
27/03:10pm 32.4 31.7 12.1 29 - SW 7 9 4 5 - - 0.0
27/03:00pm 32.2 31.3 11.5 28 - SW 7 11 4 6 - - 0.0
27/02:50pm 32.0 30.7 11.2 28 - WSW 9 11 5 6 - - 0.0
27/02:40pm 32.5 31.4 12.1 28 - WSW 9 11 5 6 - - 0.0
27/02:30pm 32.6 32.0 12.2 28 - WSW 7 11 4 6 - - 0.0
27/02:20pm 32.6 32.0 12.3 29 - WSW 7 11 4 6 - - 0.0
27/02:10pm 32.9 32.4 13.7 31 - W 9 13 5 7 - - 0.0
27/02:00pm 32.7 32.6 13.8 31 - WSW 7 9 4 5 - - 0.0
27/01:50pm 32.6 32.6 14.3 33 - W 7 9 4 5 - - 0.0
27/01:40pm 32.6 32.8 14.2 32 - WSW 6 9 3 5 - - 0.0
27/01:30pm 32.2 31.9 13.3 31 - WNW 7 7 4 4 - - 0.0
27/01:20pm 31.6 31.5 14.0 34 - W 7 11 4 6 - - 0.0
27/01:10pm 31.8 31.7 13.8 33 - WNW 7 11 4 6 - - 0.0
27/01:00pm 31.6 31.4 13.6 33 - WNW 7 9 4 5 - - 0.0
27/12:50pm 31.7 31.7 15.3 37 - W 9 11 5 6 - - 0.0
27/12:40pm 32.1 32.2 15.4 36 - W 9 13 5 7 - - 0.0
27/12:30pm 32.8 32.2 11.6 27 - W 6 9 3 5 - - 0.0
27/12:20pm 32.7 31.9 11.2 26 - W 6 9 3 5 - - 0.0
27/12:10pm 32.6 31.7 10.7 26 - N 6 9 3 5 - - 0.0
27/12:00pm 32.1 31.6 12.0 29 - WSW 6 7 3 4 - - 0.0
27/11:50am 32.1 31.1 11.0 27 - NNW 7 9 4 5 - - 0.0
27/11:40am 32.0 31.3 11.3 28 - NNE 6 9 3 5 - - 0.0
27/11:30am 31.4 30.7 12.1 30 - NNW 7 9 4 5 - - 0.0
27/11:20am 31.3 30.6 11.3 29 - N 6 9 3 5 - - 0.0
27/11:10am 30.4 29.5 11.4 31 - NW 7 9 4 5 - - 0.0
27/11:00am 30.5 30.0 12.0 32 - NW 6 9 3 5 - - 0.0
27/10:50am 30.1 29.4 11.5 31 - WNW 6 9 3 5 - - 0.0
27/10:40am 29.7 28.8 11.4 32 - NNE 7 9 4 5 - - 0.0
27/10:30am 29.4 28.9 12.2 34 - N 6 9 3 5 - - 0.0
27/10:20am 29.1 28.4 11.9 34 - NNE 7 11 4 6 - - 0.0
27/10:10am 28.6 27.7 11.5 34 - NNE 7 9 4 5 - - 0.0
27/10:00am 28.2 27.5 11.9 36 - NNE 7 9 4 5 - - 0.0
27/09:50am 27.8 27.3 12.1 37 - NE 6 7 3 4 - - 0.0
27/09:40am 27.4 27.0 12.3 39 - ENE 6 7 3 4 - - 0.0
27/09:30am 26.7 26.6 13.4 43 - NE 6 7 3 4 - - 0.0
27/09:20am 26.2 26.0 12.9 43 - ENE 6 7 3 4 - - 0.0
27/09:10am 25.3 25.1 13.1 46 - NE 6 7 3 4 - - 0.0
27/09:00am 25.0 24.8 13.0 47 - NE 6 9 3 5 - - 0.0
27/08:50am 24.8 25.2 13.8 50 - E 4 4 2 2 - - 0.0
27/08:40am 23.9 24.4 14.0 54 - ENE 4 6 2 3 - - 0.0
27/08:30am 22.8 23.2 13.8 57 - ENE 4 7 2 4 - - 0.0
27/08:20am 22.1 22.5 13.8 59 - E 4 6 2 3 - - 0.0
27/08:10am 21.4 22.3 13.9 62 - SW 2 4 1 2 - - 0.0
27/08:00am 20.0 20.2 12.9 63 - ENE 4 6 2 3 - - 0.0
27/07:50am 19.5 19.8 13.4 68 - ENE 4 7 2 4 - - 0.0
27/07:40am 19.1 19.2 12.8 67 - ENE 4 7 2 4 - - 0.0
27/07:30am 18.3 18.3 12.4 68 - ENE 4 7 2 4 - - 0.0
27/07:20am 17.4 17.3 12.2 71 - NE 4 6 2 3 - - 0.0
27/07:10am 15.8 16.3 12.8 82 - ENE 2 2 1 1 - - 0.0
27/07:00am 15.0 15.9 14.0 94 - SSW 2 4 1 2 - - 0.0
27/06:50am 14.7 15.6 13.9 95 - S 2 4 1 2 - - 0.0
27/06:40am 14.7 15.6 13.9 95 - S 2 4 1 2 - - 0.0
27/06:30am 14.4 15.1 13.3 93 - S 2 4 1 2 - - 0.0
27/06:20am 13.7 14.4 13.4 98 - SSW 2 4 1 2 - - 0.0
27/06:10am 13.3 13.5 13.2 99 - SSW 4 4 2 2 - - 0.0
27/06:00am 13.0 13.2 13.0 100 - S 4 4 2 2 - - 0.0
27/05:50am 12.9 13.1 12.9 100 - S 4 6 2 3 - - 0.0
27/05:40am 12.9 13.1 12.9 100 - S 4 4 2 2 - - 0.0
27/05:30am 12.9 13.4 12.9 100 - SSE 2 4 1 2 - - 0.0
27/05:20am 12.9 13.1 12.9 100 - S 4 6 2 3 - - 0.0
27/05:10am 13.0 13.2 13.0 100 - S 4 4 2 2 - - 0.0
27/05:00am 13.1 13.3 13.1 100 - S 4 4 2 2 - - 0.0
27/04:50am 13.2 13.8 13.2 100 - S 2 4 1 2 - - 0.0
27/04:40am 13.3 13.9 13.2 99 - S 2 2 1 1 - - 0.0
27/04:30am 13.4 14.1 13.4 100 - S 2 4 1 2 - - 0.0
27/04:20am 13.5 14.2 13.5 100 - S 2 4 1 2 - - 0.0
27/04:10am 13.6 14.4 13.6 100 - S 2 4 1 2 - - 0.0
27/04:00am 13.7 14.5 13.7 100 - S 2 4 1 2 - - 0.0
27/03:50am 13.8 14.6 13.8 100 - S 2 4 1 2 - - 0.0
27/03:40am 13.9 14.8 13.9 100 - S 2 2 1 1 - - 0.0
27/03:30am 13.9 14.8 13.9 100 - S 2 2 1 1 - - 0.0
27/03:20am 14.0 14.9 14.0 100 - S 2 4 1 2 - - 0.0
27/03:10am 14.0 14.9 14.0 100 - S 2 4 1 2 - - 0.0
27/03:00am 14.1 15.0 14.1 100 - S 2 4 1 2 - - 0.0
27/02:50am 14.1 15.0 14.1 100 - S 2 4 1 2 - - 0.0
27/02:40am 14.1 15.0 14.1 100 - S 2 4 1 2 - - 0.0
27/02:30am 14.1 15.0 14.1 100 - S 2 2 1 1 - - 0.0
27/02:20am 14.2 15.2 14.2 100 - S 2 4 1 2 - - 0.0
27/02:10am 14.3 15.3 14.2 99 - S 2 4 1 2 - - 0.0
27/02:00am 14.4 15.4 14.4 100 - S 2 4 1 2 - - 0.0
27/01:50am 14.6 15.7 14.5 99 - S 2 2 1 1 - - 0.0
27/01:40am 14.8 15.9 14.7 99 - S 2 2 1 1 - - 0.0
27/01:30am 14.8 15.9 14.7 99 - SSW 2 2 1 1 - - 0.0
27/01:20am 14.9 16.0 14.7 99 - SSW 2 4 1 2 - - 0.0
27/01:10am 15.1 16.3 14.9 99 - SSW 2 4 1 2 - - 0.0
27/01:00am 15.2 16.1 15.0 99 - SSW 4 4 2 2 - - 0.0
27/12:50am 15.3 16.5 15.0 98 - SSW 2 4 1 2 - - 0.0
27/12:40am 15.4 16.7 15.1 98 - S 2 4 1 2 - - 0.0
27/12:30am 15.5 16.8 15.2 98 - SSW 2 2 1 1 - - 0.0
27/12:20am 15.7 17.0 15.2 97 - S 2 6 1 3 - - 0.0
27/12:10am 15.9 17.3 15.4 97 - S 2 4 1 2 - - 0.0
27/12:00am 16.0 17.4 15.5 97 - S 2 4 1 2 - - 0.0
 
Date/Time
WST
Temp
°C
App
Temp
°C
Dew
Point
°C
Rel
Hum
%
Delta-T
°C
Wind Press
QNH
hPa
Press
MSL
hPa
Rain since
9am
mm
Dir  Spd
km/h
Gust
km/h
Spd
kts
Gust
kts
26/11:50pm 16.1 17.6 15.6 97 - SSW 2 4 1 2 - - 0.0
26/11:40pm 16.2 17.7 15.6 96 - E 2 4 1 2 - - 0.0
26/11:30pm 16.2 17.3 15.7 97 - ESE 4 6 2 3 - - 0.0
26/11:20pm 16.2 17.3 15.7 97 - S 4 6 2 3 - - 0.0
26/11:10pm 16.2 17.3 15.6 96 - SSW 4 7 2 4 - - 0.0
26/11:00pm 16.2 17.3 15.6 96 - SSW 4 6 2 3 - - 0.0
26/10:50pm 16.3 17.4 15.6 96 - SW 4 6 2 3 - - 0.0
26/10:40pm 16.3 17.4 15.7 96 - S 4 6 2 3 - - 0.0
26/10:30pm 16.4 17.5 15.7 96 - SW 4 4 2 2 - - 0.0
26/10:20pm 16.4 17.5 15.6 95 - SSW 4 6 2 3 - - 0.0
26/10:10pm 16.5 17.2 15.6 94 - S 6 6 3 3 - - 0.0
26/10:00pm 16.6 17.7 15.7 94 - SW 4 6 2 3 - - 0.0
26/09:50pm 16.6 17.3 15.7 94 - SSW 6 9 3 5 - - 0.0
26/09:40pm 16.6 17.3 15.7 94 - S 6 7 3 4 - - 0.0
26/09:30pm 16.6 17.3 15.7 94 - S 6 7 3 4 - - 0.0
26/09:20pm 16.7 17.4 15.7 94 - SW 6 6 3 3 - - 0.0
26/09:10pm 16.8 17.5 15.6 93 - S 6 7 3 4 - - 0.0
26/09:00pm 16.9 18.0 15.6 92 - S 4 6 2 3 - - 0.0
26/08:50pm 17.0 17.7 15.6 91 - S 6 7 3 4 - - 0.0
26/08:40pm 17.1 17.8 15.5 90 - SSW 6 7 3 4 - - 0.0
26/08:30pm 17.2 17.8 15.4 89 - S 6 7 3 4 - - 0.0
26/08:20pm 17.3 17.9 15.3 88 - S 6 7 3 4 - - 0.0
26/08:10pm 17.4 17.9 15.1 86 - SSW 6 6 3 3 - - 0.0
26/08:00pm 17.6 18.1 15.0 85 - S 6 7 3 4 - - 0.0
26/07:50pm 17.7 18.2 14.9 84 - S 6 9 3 5 - - 0.0
26/07:40pm 17.9 18.3 14.8 82 - SSW 6 7 3 4 - - 0.0
26/07:30pm 18.1 18.5 14.7 80 - SSW 6 9 3 5 - - 0.0
26/07:20pm 18.4 18.7 14.6 78 - SW 6 7 3 4 - - 0.0
26/07:10pm 18.8 19.0 14.3 75 - SSW 6 9 3 5 - - 0.0
26/07:00pm 19.2 19.2 14.2 73 - SSW 7 9 4 5 - - 0.0
26/06:50pm 20.0 20.2 14.3 69 - SSW 6 7 3 4 - - 0.0
26/06:40pm 20.9 21.5 14.3 66 - SW 4 6 2 3 - - 0.0
26/06:30pm 21.2 21.5 14.4 65 - SSW 6 9 3 5 - - 0.0
26/06:20pm 21.6 21.8 14.7 65 - SSW 7 9 4 5 - - 0.0
26/06:10pm 22.1 22.2 14.5 62 - S 7 9 4 5 - - 0.0
26/06:00pm 22.8 22.9 14.5 59 - SSW 7 7 4 4 - - 0.0
26/05:50pm 23.3 23.6 14.4 57 - SW 6 9 3 5 - - 0.0
26/05:40pm 23.7 23.7 14.3 55 - SSE 7 9 4 5 - - 0.0
26/05:30pm 24.2 24.4 14.3 54 - S 6 7 3 4 - - 0.0
26/05:20pm 24.6 24.6 14.3 52 - SSE 7 9 4 5 - - 0.0
26/05:10pm 25.1 25.1 14.2 50 - S 7 11 4 6 - - 0.0
26/05:00pm 25.7 25.8 14.5 50 - S 7 9 4 5 - - 0.0
26/04:50pm 26.6 26.6 13.7 45 - SSW 6 9 3 5 - - 0.0
26/04:40pm 26.3 26.5 14.1 47 - S 6 9 3 5 - - 0.0
26/04:30pm 26.3 25.9 13.1 44 - S 7 9 4 5 - - 0.0
26/04:20pm 26.8 26.4 13.1 42 - S 7 11 4 6 - - 0.0
26/04:10pm 27.0 26.8 13.6 43 - SSW 7 11 4 6 - - 0.0
26/04:00pm 27.3 27.1 13.7 43 - SSW 7 9 4 5 - - 0.0
26/03:50pm 27.3 27.1 13.7 43 - S 7 11 4 6 - - 0.0
26/03:40pm 27.8 27.6 13.7 42 - SSW 7 11 4 6 - - 0.0
26/03:30pm 27.7 27.3 14.0 43 - S 9 11 5 6 - - 0.0
26/03:20pm 28.2 28.0 13.6 40 - S 7 11 4 6 - - 0.0
26/03:10pm 28.7 28.6 13.8 40 - S 7 11 4 6 - - 0.0
26/03:00pm 29.5 29.8 14.9 41 - SW 7 11 4 6 - - 0.0
26/02:50pm 29.7 29.5 14.7 40 - SW 9 15 5 8 - - 0.0
26/02:40pm 30.4 30.9 14.9 39 - SSW 6 7 3 4 - - 0.0
26/02:30pm 30.5 30.8 14.9 38 - SSW 7 7 4 4 - - 0.0
26/02:20pm 30.5 30.6 14.4 37 - SW 7 9 4 5 - - 0.0
26/02:10pm 30.6 30.1 12.7 33 - S 7 9 4 5 - - 0.0
26/02:00pm 31.0 30.7 13.4 34 - S 7 9 4 5 - - 0.0
26/01:50pm 30.9 30.4 12.7 32 - S 7 9 4 5 - - 0.0
26/01:40pm 30.7 30.3 12.9 33 - SSW 7 7 4 4 - - 0.0
26/01:30pm 30.5 30.6 14.4 37 - SW 7 9 4 5 - - 0.0
26/01:20pm 30.6 30.3 13.2 34 - SW 7 11 4 6 - - 0.0
26/01:10pm 30.3 29.2 10.6 29 - SW 7 9 4 5 - - 0.0
26/01:00pm 30.4 29.8 12.2 32 - SW 7 11 4 6 - - 0.0
26/12:50pm 30.7 30.6 13.3 34 - SW 6 9 3 5 - - 0.0
26/12:40pm 30.5 30.2 13.4 35 - SSW 7 11 4 6 - - 0.0
26/12:30pm 30.6 30.6 13.5 35 - SSE 6 7 3 4 - - 0.0
26/12:20pm 30.9 31.1 14.2 36 - SW 6 7 3 4 - - 0.0
26/12:10pm 30.7 31.1 13.8 35 - ENE 4 6 2 3 - - 0.0
26/12:00pm 30.2 30.3 14.0 37 - ENE 6 7 3 4 - - 0.0
26/11:50am 29.6 29.2 12.3 34 - E 6 7 3 4 - - 0.0
26/11:40am 29.0 28.4 12.3 35 - NE 7 13 4 7 - - 0.0
26/11:30am 29.0 28.4 11.8 34 - NNE 6 9 3 5 - - 0.0
26/11:20am 29.0 29.4 13.6 38 - SW 4 7 2 4 - - 0.0
26/11:10am 28.8 28.4 12.4 36 - NW 6 9 3 5 - - 0.0
26/11:00am 28.8 28.4 12.4 36 - NNE 6 9 3 5 - - 0.0
26/10:50am 27.8 27.9 13.8 42 - E 6 9 3 5 - - 0.0
26/10:40am 27.7 27.5 13.1 40 - NNE 6 9 3 5 - - 0.0
26/10:30am 27.3 27.2 13.2 41 - NNE 6 7 3 4 - - 0.0
26/10:20am 27.1 27.2 13.8 44 - SW 6 7 3 4 - - 0.0
26/10:10am 25.9 25.4 12.8 44 - NNE 7 11 4 6 - - 0.0
26/10:00am 25.9 25.6 12.7 44 - ESE 6 7 3 4 - - 0.0
26/09:50am 25.5 25.2 12.7 45 - ESE 6 7 3 4 - - 0.0
26/09:40am 24.8 24.8 13.6 49 - SE 6 6 3 3 - - 0.0
26/09:30am 24.5 25.0 13.9 51 - - 4 6 2 3 - - 0.0
26/09:20am 23.6 23.7 13.9 54 - ENE 6 7 3 4 - - 0.0
26/09:10am 22.9 23.4 13.9 57 - ENE 4 7 2 4 - - 0.0
26/09:00am 22.4 22.3 13.2 56 - ENE 6 7 3 4 - - 0.0
26/08:50am 21.6 21.7 13.9 61 - S 6 7 3 4 - - 0.0
26/08:40am 21.1 21.4 13.4 61 - E 4 6 2 3 - - 0.0
26/08:30am 20.4 20.4 13.6 65 - NNE 6 9 3 5 - - 0.0
26/08:20am 19.7 19.7 13.5 67 - SSE 6 6 3 3 - - 0.0
26/08:10am 19.0 19.0 13.6 71 - ESE 6 9 3 5 - - 0.0
26/08:00am 18.0 18.2 12.9 72 - SE 4 7 2 4 - - 0.0
26/07:50am 17.1 16.9 13.1 77 - SE 6 9 3 5 - - 0.0
26/07:40am 17.0 17.1 12.7 76 - E 4 7 2 4 - - 0.0
26/07:30am 16.4 16.5 12.8 79 - NE 4 7 2 4 - - 0.0
26/07:20am 16.1 16.1 12.5 79 - ENE 4 6 2 3 - - 0.0
26/07:10am 15.6 15.3 12.6 82 - SE 6 6 3 3 - - 0.0
26/07:00am 15.2 15.3 12.7 85 - SE 4 6 2 3 - - 0.0
26/06:50am 14.8 14.9 12.6 87 - SSW 4 4 2 2 - - 0.0
26/06:40am 14.4 14.5 12.7 89 - S 4 6 2 3 - - 0.0
26/06:30am 14.0 14.2 12.9 93 - W 4 4 2 2 - - 0.0
26/06:20am 13.5 13.7 12.9 96 - SSW 4 6 2 3 - - 0.0
26/06:10am 13.2 13.4 12.9 98 - SSW 4 6 2 3 - - 0.0
26/06:00am 13.0 13.2 12.9 99 - SSW 4 6 2 3 - - 0.0
26/05:50am 12.9 13.0 12.8 99 - SW 4 4 2 2 - - 0.0
26/05:40am 12.8 13.3 12.7 99 - WSW 2 4 1 2 - - 0.0
26/05:30am 12.7 12.8 12.7 100 - S 4 4 2 2 - - 0.0
26/05:20am 12.7 12.8 12.6 99 - SSW 4 6 2 3 - - 0.0
26/05:10am 12.7 12.8 12.7 100 - S 4 6 2 3 - - 0.0
26/05:00am 12.6 12.7 12.6 100 - SSW 4 6 2 3 - - 0.0
26/04:50am 12.6 12.7 12.6 100 - SSW 4 6 2 3 - - 0.0
26/04:40am 12.5 12.5 12.5 100 - SW 4 4 2 2 - - 0.0
26/04:30am 12.6 13.0 12.6 100 - SSW 2 4 1 2 - - 0.0
26/04:20am 12.6 13.0 12.6 100 - SW 2 4 1 2 - - 0.0
26/04:10am 12.6 12.7 12.6 100 - SW 4 4 2 2 - - 0.0
26/04:00am 12.6 13.0 12.5 99 - SW 2 2 1 1 - - 0.0
26/03:50am 12.6 13.0 12.6 100 - SSW 2 4 1 2 - - 0.0
26/03:40am 12.8 13.3 12.8 100 - SW 2 4 1 2 - - 0.0
26/03:30am 13.0 13.6 13.0 100 - SSW 2 4 1 2 - - 0.0
26/03:20am 13.2 13.8 13.2 100 - SSW 2 4 1 2 - - 0.0
26/03:10am 13.4 14.1 13.4 100 - SSW 2 4 1 2 - - 0.0
26/03:00am 13.6 14.4 13.6 100 - SSW 2 4 1 2 - - 0.0
26/02:50am 13.7 14.5 13.7 100 - S 2 4 1 2 - - 0.0
26/02:40am 13.8 14.6 13.7 99 - SSW 2 4 1 2 - - 0.0
26/02:30am 14.0 14.8 13.8 99 - SSW 2 4 1 2 - - 0.0
26/02:20am 14.2 15.1 14.1 99 - SW 2 4 1 2 - - 0.0
26/02:10am 14.3 15.2 14.1 99 - S 2 4 1 2 - - 0.0
26/02:00am 14.5 15.5 14.3 99 - S 2 6 1 3 - - 0.0
26/01:50am 14.6 15.6 14.4 99 - S 2 6 1 3 - - 0.0
26/01:40am 14.6 15.6 14.4 99 - WSW 2 4 1 2 - - 0.0
26/01:30am 14.8 15.5 14.4 97 - SW 4 4 2 2 - - 0.0
26/01:20am 14.9 16.0 14.5 97 - S 2 4 1 2 - - 0.0
26/01:10am 15.0 15.7 14.6 97 - SSW 4 6 2 3 - - 0.0
26/01:00am 15.2 16.0 14.7 97 - S 4 6 2 3 - - 0.0
26/12:50am 15.2 16.0 14.7 97 - SSW 4 6 2 3 - - 0.0
26/12:40am 15.3 16.1 14.7 96 - SSW 4 6 2 3 - - 0.0
26/12:30am 15.4 16.2 14.8 96 - SSW 4 6 2 3 - - 0.0
26/12:20am 15.5 16.3 14.8 96 - S 4 6 2 3 - - 0.0
26/12:10am 15.6 16.4 14.9 96 - S 4 7 2 4 - - 0.0
26/12:00am 15.7 16.5 14.9 95 - S 4 6 2 3 - - 0.0
 
Date/Time
WST
Temp
°C
App
Temp
°C
Dew
Point
°C
Rel
Hum
%
Delta-T
°C
Wind Press
QNH
hPa
Press
MSL
hPa
Rain since
9am
mm
Dir  Spd
km/h
Gust
km/h
Spd
kts
Gust
kts
25/11:50pm 15.7 16.5 14.9 95 - SSW 4 6 2 3 - - 0.0
25/11:40pm 15.8 16.3 15.0 95 - S 6 7 3 4 - - 0.0
25/11:30pm 15.9 16.8 15.0 94 - S 4 7 2 4 - - 0.0
25/11:20pm 16.0 16.9 15.1 94 - SSE 4 6 2 3 - - 0.0
25/11:10pm 16.0 16.9 15.1 94 - S 4 6 2 3 - - 0.0
25/11:00pm 16.1 17.0 15.1 94 - SSW 4 6 2 3 - - 0.0
25/10:50pm 16.2 16.7 15.1 93 - S 6 7 3 4 - - 0.0
25/10:40pm 16.2 16.7 15.1 93 - S 6 7 3 4 - - 0.0
25/10:30pm 16.3 16.8 15.1 93 - S 6 6 3 3 - - 0.0
25/10:20pm 16.3 17.2 15.1 93 - S 4 7 2 4 - - 0.0
25/10:10pm 16.4 17.0 15.2 93 - SSE 6 6 3 3 - - 0.0
25/10:00pm 16.4 17.0 15.2 93 - S 6 7 3 4 - - 0.0
25/09:50pm 16.5 17.4 15.2 92 - S 4 6 2 3 - - 0.0
25/09:40pm 16.6 17.2 15.2 91 - S 6 7 3 4 - - 0.0
25/09:30pm 16.6 17.2 15.2 91 - SSW 6 7 3 4 - - 0.0
25/09:20pm 16.7 17.3 15.2 91 - SSW 6 6 3 3 - - 0.0
25/09:10pm 16.8 17.3 15.1 90 - S 6 9 3 5 - - 0.0
25/09:00pm 16.9 17.4 15.1 89 - S 6 9 3 5 - - 0.0
25/08:50pm 17.0 17.5 15.0 88 - S 6 9 3 5 - - 0.0
25/08:40pm 17.1 17.6 15.1 88 - S 6 9 3 5 - - 0.0
25/08:30pm 17.2 17.7 15.0 87 - S 6 7 3 4 - - 0.0
25/08:20pm 17.4 17.9 14.9 85 - S 6 9 3 5 - - 0.0
25/08:10pm 17.5 18.0 14.9 85 - S 6 9 3 5 - - 0.0
25/08:00pm 17.7 18.1 14.8 83 - S 6 9 3 5 - - 0.0
25/07:50pm 17.8 18.2 14.7 82 - SSW 6 7 3 4 - - 0.0
25/07:40pm 18.0 18.4 14.7 81 - S 6 9 3 5 - - 0.0
25/07:30pm 18.3 18.6 14.6 79 - S 6 7 3 4 - - 0.0
25/07:20pm 18.6 18.9 14.6 77 - S 6 7 3 4 - - 0.0
25/07:10pm 18.9 19.3 14.7 76 - S 6 7 3 4 - - 0.0
25/07:00pm 19.4 19.8 14.8 75 - SSW 6 7 3 4 - - 0.0
25/06:50pm 19.8 20.2 14.8 73 - S 6 7 3 4 - - 0.0
25/06:40pm 20.4 20.2 14.7 70 - S 9 11 5 6 - - 0.0
25/06:30pm 20.8 21.0 14.7 68 - S 7 11 4 6 - - 0.0
25/06:20pm 21.6 21.5 14.9 65 - S 9 11 5 6 - - 0.0
25/06:10pm 22.6 23.1 14.9 61 - S 6 9 3 5 - - 0.0
25/06:00pm 22.6 23.1 15.0 62 - S 6 7 3 4 - - 0.0
25/05:50pm 22.5 22.7 14.7 61 - S 7 9 4 5 - - 0.0
25/05:40pm 23.4 23.7 15.1 59 - SSW 7 11 4 6 - - 0.0
25/05:30pm 24.3 24.7 15.3 57 - SSW 7 7 4 4 - - 0.0
25/05:20pm 24.5 25.0 15.1 55 - S 6 9 3 5 - - 0.0
25/05:10pm 24.5 24.8 15.1 55 - SSW 7 9 4 5 - - 0.0
25/05:00pm 24.5 24.8 14.9 55 - SSW 7 11 4 6 - - 0.0
25/04:50pm 24.4 24.7 15.1 56 - S 7 11 4 6 - - 0.0
25/04:40pm 24.8 24.8 15.3 55 - S 9 13 5 7 - - 0.0
25/04:30pm 26.0 26.4 15.2 51 - SSW 7 9 4 5 - - 0.0
25/04:20pm 26.2 26.5 14.9 49 - SW 7 9 4 5 - - 0.0
25/04:10pm 25.9 26.2 15.1 51 - S 7 9 4 5 - - 0.0
25/04:00pm 25.7 25.6 15.0 51 - SE 9 11 5 6 - - 0.0
25/03:50pm 26.4 26.7 14.9 49 - S 7 11 4 6 - - 0.0
25/03:40pm 26.5 26.4 14.9 49 - SSW 9 11 5 6 - - 0.0
25/03:30pm 26.8 27.2 15.4 49 - SSE 7 13 4 7 - - 0.0
25/03:20pm 27.2 27.5 14.9 47 - SSW 7 11 4 6 - - 0.0
25/03:10pm 26.6 26.6 15.2 49 - S 9 11 5 6 - - 0.0
25/03:00pm 26.8 26.7 14.9 48 - S 9 13 5 7 - - 0.0
25/02:50pm 27.3 27.6 15.1 47 - SSW 7 9 4 5 - - 0.0
25/02:40pm 27.0 27.1 15.5 49 - SSW 9 11 5 6 - - 0.0
25/02:30pm 27.6 28.0 15.3 47 - SW 7 11 4 6 - - 0.0
25/02:20pm 27.8 28.1 14.9 45 - SSE 7 9 4 5 - - 0.0
25/02:10pm 27.8 28.2 15.2 46 - S 7 11 4 6 - - 0.0
25/02:00pm 27.7 27.5 14.6 44 - S 9 13 5 7 - - 0.0
25/01:50pm 28.0 28.2 14.6 44 - S 7 11 4 6 - - 0.0
25/01:40pm 28.3 28.5 14.6 43 - SSW 7 13 4 7 - - 0.0
25/01:30pm 28.5 28.6 14.5 42 - SSE 7 9 4 5 - - 0.0
25/01:20pm 29.3 29.2 13.3 37 - ENE 6 7 3 4 - - 0.0
25/01:10pm 28.4 28.5 14.0 41 - SW 6 9 3 5 - - 0.0
25/01:00pm 28.6 28.1 12.7 37 - ENE 7 9 4 5 - - 0.0
25/12:50pm 28.2 27.6 12.2 37 - E 7 11 4 6 - - 0.0
25/12:40pm 28.2 28.0 13.0 39 - ESE 6 9 3 5 - - 0.0
25/12:30pm 28.3 27.9 12.4 37 - SSE 6 9 3 5 - - 0.0
25/12:20pm 27.6 27.4 13.0 40 - NE 6 7 3 4 - - 0.0
25/12:10pm 27.0 26.5 12.6 41 - SSE 7 9 4 5 - - 0.0
25/12:00pm 27.1 26.9 12.9 41 - SSE 6 7 3 4 - - 0.0
25/11:50am 26.9 26.7 12.9 42 - SSW 6 7 3 4 - - 0.0
25/11:40am 26.8 26.5 12.6 41 - E 6 9 3 5 - - 0.0
25/11:30am 26.1 25.9 13.1 44 - NE 6 7 3 4 - - 0.0
25/11:20am 25.8 25.5 12.7 44 - SSE 6 7 3 4 - - 0.0
25/11:10am 24.8 24.3 12.7 47 - S 7 11 4 6 - - 0.0
25/11:00am 24.9 24.6 12.6 46 - W 6 9 3 5 - - 0.0
25/10:50am 24.2 23.7 12.6 48 - SE 7 9 4 5 - - 0.0
25/10:40am 24.9 24.6 12.7 46 - S 6 9 3 5 - - 0.0
25/10:30am 23.9 23.6 12.8 49 - ENE 6 9 3 5 - - 0.0
25/10:20am 23.3 22.9 12.5 50 - SE 6 9 3 5 - - 0.0
25/10:10am 22.8 22.4 12.3 51 - S 6 9 3 5 - - 0.0
25/10:00am 22.5 22.1 12.3 52 - ESE 6 7 3 4 - - 0.0
25/09:50am 22.2 22.0 12.9 55 - E 6 7 3 4 - - 0.0
25/09:40am 21.9 21.4 12.0 53 - SSE 6 7 3 4 - - 0.0
25/09:30am 21.4 20.9 12.2 55 - S 6 9 3 5 - - 0.0
25/09:20am 20.7 20.3 12.5 59 - SSE 6 7 3 4 - - 0.0
25/09:10am 20.0 19.6 12.3 61 - SE 6 9 3 5 - - 0.0
25/09:00am 19.6 19.0 12.3 62 - SSE 7 9 4 5 - - 0.0
25/08:50am 19.6 19.1 12.1 62 - NE 6 9 3 5 - - 0.0
25/08:40am 19.3 18.8 12.2 63 - ENE 6 7 3 4 - - 0.0
25/08:30am 18.8 18.3 12.1 65 - ENE 6 9 3 5 - - 0.0
25/08:20am 18.2 17.8 12.3 68 - ESE 6 9 3 5 - - 0.0
25/08:10am 17.5 16.9 11.7 69 - E 6 7 3 4 - - 0.0
25/08:00am 16.5 15.9 11.7 73 - ESE 6 7 3 4 - - 0.0
25/07:50am 15.8 15.2 11.8 77 - ENE 6 7 3 4 - - 0.0

Other formats

Comma delimited format used in spreadsheet applications
http://www.bom.gov.au/fwo/IDW60801/IDW60801.99455.axf

JavaScript Object Notation format (JSON) in row-major order
http://www.bom.gov.au/fwo/IDW60801/IDW60801.99455.json

Data quality

Most of these data are generated automatically and are frequently updated. Quality checks on data are not normally performed. It is possible for incorrect values to appear. Refer to information at About Latest Weather Observations and please check the disclaimer before using these data.